Estación Meteorológica Peña el Pijo (Robertgarden) [ 11/20/17 01:25:07 CET ]

Fecha Hora Presion(HPa) Temp (°C) Humedad % Rocio (°C) Viento ( m/s) Direccion Lluvia 1Hora(mm) Lluvia 24H(mm) LLuvia Total(mm)
2017-Nov-08 01:02:05 1011.200 2.3 66 -3.4         1468.01
2017-Nov-08 02:01:40 1011.000 1.8 68 -3.5         1468.01
2017-Nov-08 03:01:41 1011.000 1.3 70 -3.6         1468.01
2017-Nov-08 04:01:43 1010.500 1.2 71 -3.5         1468.01
2017-Nov-08 05:01:41 1010.900 0.6 72 -3.9         1468.01
2017-Nov-08 06:01:41 1011.000 0.9 74 -3.3         1468.01
2017-Nov-08 07:01:48 1010.900 0.9 75 -3.1         1468.01
2017-Nov-08 08:01:50 1011.400 1.1 75 -2.9         1468.01
2017-Nov-08 09:01:33 1011.600 3.6 77 -0.1         1468.01
2017-Nov-08 10:01:57 1011.600 11.0 59 3.2         1468.01
2017-Nov-08 11:01:49 1011.300 15.9 43 3.3         1468.01
2017-Nov-08 12:01:49 1011.100 17.6 38 3.0         1468.01
2017-Nov-08 13:01:44 1010.100 16.8 35 1.1         1468.01
2017-Nov-08 14:01:51 1009.500 18.5 33 1.9         1468.01
2017-Nov-08 15:01:48 1009.100 20.3 30 2.2         1468.01
2017-Nov-08 16:01:38 1009.500 17.8 32 0.8 1.4 N     1468.01
2017-Nov-08 17:01:46 1009.500 15.2 36 0.1         1468.01
2017-Nov-08 18:01:35 1009.400 12.4 46 1.0         1468.01
2017-Nov-08 19:01:51 1010.200 8.5 53 -0.6         1468.01
2017-Nov-08 20:01:45 1010.800 6.4 62 -0.4         1468.01
2017-Nov-08 21:02:04 1011.000 5.2 65 -0.9         1468.01
2017-Nov-08 22:01:42 1011.700 5.1 68 -0.3         1468.01
2017-Nov-08 23:01:42 1011.800 5.4 68 -0.0         1468.01

Temperatura Máxima:20°    Temperatura Mínima:
Presión Máxima:1011.800 Hpa    Presión Mínima:1009.100 Hpa


Volver